Terminal Aerodrome Forecast
Issued by NWS

Home | Current Version | Previous Version | Text Only | Print | Product List | Glossary On
Versions: 1 2 3 4 5 6 7 8 9 10 11 12 13 14 15 16 17 18 19 20 21 22 23 24 25 26 27 28 29 30 31 32 33 34 35 36 37 38 39 40 41 42 43 44 45 46 47 48 49 50
000
FTUS42 KEYW 141400 AAA
TAFMTH
TAF AMD
KMTH 141446Z 1415/1512 13005KT P6SM VCSH SCT025
      TEMPO 1419/1421 VRB12G20KT 2SM +TSRA BKN020CB OVC060
     FM142300 VRB06KT P6SM FEW030 BKN100=

USA.gov is the U.S. government's official web portal to all federal, state and local government web resources and services.